sensor_id;sensor_type;location;lat;lon;timestamp;P1;durP1;ratioP1;P2;durP2;ratioP2
7110;SDS011;3597;42.650;23.386;2023-02-26T00:02:02;1.73;;;1.63;;
7110;SDS011;3597;42.650;23.386;2023-02-26T00:04:28;2.23;;;2.00;;
7110;SDS011;3597;42.650;23.386;2023-02-26T00:06:53;4.20;;;1.80;;
7110;SDS011;3597;42.650;23.386;2023-02-26T00:09:19;3.73;;;1.53;;
7110;SDS011;3597;42.650;23.386;2023-02-26T00:11:45;1.70;;;1.63;;
7110;SDS011;3597;42.650;23.386;2023-02-26T00:14:12;1.50;;;1.50;;
7110;SDS011;3597;42.650;23.386;2023-02-26T00:16:39;1.67;;;1.67;;
7110;SDS011;3597;42.650;23.386;2023-02-26T00:19:06;2.00;;;1.90;;
7110;SDS011;3597;42.650;23.386;2023-02-26T00:21:32;1.70;;;1.70;;
7110;SDS011;3597;42.650;23.386;2023-02-26T00:23:59;2.57;;;1.97;;
7110;SDS011;3597;42.650;23.386;2023-02-26T00:26:27;1.47;;;1.47;;
7110;SDS011;3597;42.650;23.386;2023-02-26T00:28:53;1.83;;;1.73;;
7110;SDS011;3597;42.650;23.386;2023-02-26T00:31:19;1.53;;;1.47;;
7110;SDS011;3597;42.650;23.386;2023-02-26T00:33:52;1.80;;;1.70;;
7110;SDS011;3597;42.650;23.386;2023-02-26T00:36:20;2.00;;;1.90;;
7110;SDS011;3597;42.650;23.386;2023-02-26T00:41:39;1.73;;;1.73;;
7110;SDS011;3597;42.650;23.386;2023-02-26T00:44:04;2.00;;;1.80;;
7110;SDS011;3597;42.650;23.386;2023-02-26T00:46:34;2.27;;;2.10;;
7110;SDS011;3597;42.650;23.386;2023-02-26T00:49:10;1.70;;;1.70;;
7110;SDS011;3597;42.650;23.386;2023-02-26T00:51:50;1.50;;;1.50;;
7110;SDS011;3597;42.650;23.386;2023-02-26T00:54:19;1.90;;;1.83;;
7110;SDS011;3597;42.650;23.386;2023-02-26T00:56:46;1.73;;;1.60;;
7110;SDS011;3597;42.650;23.386;2023-02-26T00:59:12;1.53;;;1.40;;
7110;SDS011;3597;42.650;23.386;2023-02-26T01:01:37;1.33;;;1.33;;
7110;SDS011;3597;42.650;23.386;2023-02-26T01:04:03;1.40;;;1.40;;
7110;SDS011;3597;42.650;23.386;2023-02-26T01:06:29;1.67;;;1.57;;
7110;SDS011;3597;42.650;23.386;2023-02-26T01:11:32;2.00;;;1.87;;
7110;SDS011;3597;42.650;23.386;2023-02-26T01:13:59;1.50;;;1.40;;
7110;SDS011;3597;42.650;23.386;2023-02-26T01:16:26;1.57;;;1.57;;
7110;SDS011;3597;42.650;23.386;2023-02-26T01:19:01;1.60;;;1.50;;
7110;SDS011;3597;42.650;23.386;2023-02-26T01:21:30;1.27;;;1.23;;
7110;SDS011;3597;42.650;23.386;2023-02-26T01:23:57;1.67;;;1.57;;
7110;SDS011;3597;42.650;23.386;2023-02-26T01:26:25;1.73;;;1.50;;
7110;SDS011;3597;42.650;23.386;2023-02-26T01:28:52;1.23;;;1.23;;
7110;SDS011;3597;42.650;23.386;2023-02-26T01:31:23;3.50;;;1.67;;
7110;SDS011;3597;42.650;23.386;2023-02-26T01:33:52;1.97;;;1.83;;
7110;SDS011;3597;42.650;23.386;2023-02-26T01:36:23;3.27;;;1.83;;
7110;SDS011;3597;42.650;23.386;2023-02-26T01:49:33;1.87;;;1.77;;
7110;SDS011;3597;42.650;23.386;2023-02-26T01:52:00;1.73;;;1.63;;
7110;SDS011;3597;42.650;23.386;2023-02-26T01:54:30;1.73;;;1.63;;
7110;SDS011;3597;42.650;23.386;2023-02-26T01:57:01;2.70;;;1.47;;
7110;SDS011;3597;42.650;23.386;2023-02-26T01:59:42;3.17;;;1.73;;
7110;SDS011;3597;42.650;23.386;2023-02-26T02:02:09;1.63;;;1.53;;
7110;SDS011;3597;42.650;23.386;2023-02-26T02:04:36;1.70;;;1.27;;
7110;SDS011;3597;42.650;23.386;2023-02-26T02:07:02;2.03;;;1.17;;
7110;SDS011;3597;42.650;23.386;2023-02-26T02:09:29;1.47;;;1.47;;
7110;SDS011;3597;42.650;23.386;2023-02-26T02:16:55;1.27;;;1.27;;
7110;SDS011;3597;42.650;23.386;2023-02-26T02:30:34;1.60;;;1.60;;
7110;SDS011;3597;42.650;23.386;2023-02-26T02:33:09;1.60;;;1.50;;
7110;SDS011;3597;42.650;23.386;2023-02-26T02:35:39;1.87;;;1.50;;
7110;SDS011;3597;42.650;23.386;2023-02-26T02:38:08;1.33;;;1.33;;
7110;SDS011;3597;42.650;23.386;2023-02-26T02:40:38;1.60;;;1.50;;
7110;SDS011;3597;42.650;23.386;2023-02-26T02:43:09;1.33;;;1.33;;
7110;SDS011;3597;42.650;23.386;2023-02-26T02:45:45;1.30;;;1.30;;
7110;SDS011;3597;42.650;23.386;2023-02-26T02:48:29;2.67;;;1.40;;
7110;SDS011;3597;42.650;23.386;2023-02-26T02:51:02;1.53;;;1.40;;
7110;SDS011;3597;42.650;23.386;2023-02-26T02:53:45;3.93;;;1.27;;
7110;SDS011;3597;42.650;23.386;2023-02-26T02:56:36;1.40;;;1.40;;
7110;SDS011;3597;42.650;23.386;2023-02-26T02:59:14;1.50;;;1.50;;
7110;SDS011;3597;42.650;23.386;2023-02-26T03:01:43;1.60;;;1.60;;
7110;SDS011;3597;42.650;23.386;2023-02-26T03:04:10;1.47;;;1.47;;
7110;SDS011;3597;42.650;23.386;2023-02-26T03:06:37;1.33;;;1.30;;
7110;SDS011;3597;42.650;23.386;2023-02-26T03:09:03;4.37;;;1.43;;
7110;SDS011;3597;42.650;23.386;2023-02-26T03:11:30;1.47;;;1.40;;
7110;SDS011;3597;42.650;23.386;2023-02-26T03:13:56;2.87;;;1.63;;
7110;SDS011;3597;42.650;23.386;2023-02-26T03:21:56;2.57;;;1.60;;
7110;SDS011;3597;42.650;23.386;2023-02-26T03:24:37;1.30;;;1.30;;
7110;SDS011;3597;42.650;23.386;2023-02-26T03:27:10;1.63;;;1.57;;
7110;SDS011;3597;42.650;23.386;2023-02-26T03:32:20;1.43;;;1.43;;
7110;SDS011;3597;42.650;23.386;2023-02-26T03:34:57;1.57;;;1.00;;
7110;SDS011;3597;42.650;23.386;2023-02-26T03:37:26;1.20;;;1.20;;
7110;SDS011;3597;42.650;23.386;2023-02-26T03:39:59;1.57;;;1.40;;
7110;SDS011;3597;42.650;23.386;2023-02-26T03:42:36;1.30;;;1.30;;
7110;SDS011;3597;42.650;23.386;2023-02-26T03:45:08;1.53;;;1.43;;
7110;SDS011;3597;42.650;23.386;2023-02-26T03:47:35;2.57;;;1.40;;
7110;SDS011;3597;42.650;23.386;2023-02-26T03:52:32;1.53;;;1.23;;
7110;SDS011;3597;42.650;23.386;2023-02-26T03:55:04;1.70;;;1.60;;
7110;SDS011;3597;42.650;23.386;2023-02-26T03:57:31;1.33;;;1.33;;
7110;SDS011;3597;42.650;23.386;2023-02-26T03:59:56;1.50;;;1.40;;
7110;SDS011;3597;42.650;23.386;2023-02-26T04:02:39;2.07;;;1.30;;
7110;SDS011;3597;42.650;23.386;2023-02-26T04:05:10;1.70;;;1.60;;
7110;SDS011;3597;42.650;23.386;2023-02-26T04:07:38;1.67;;;1.57;;
7110;SDS011;3597;42.650;23.386;2023-02-26T04:10:04;1.50;;;1.40;;
7110;SDS011;3597;42.650;23.386;2023-02-26T04:12:30;1.57;;;1.53;;
7110;SDS011;3597;42.650;23.386;2023-02-26T04:14:56;3.70;;;1.30;;
7110;SDS011;3597;42.650;23.386;2023-02-26T04:17:21;1.40;;;1.40;;
7110;SDS011;3597;42.650;23.386;2023-02-26T04:19:47;1.07;;;1.03;;
7110;SDS011;3597;42.650;23.386;2023-02-26T04:22:12;1.60;;;1.50;;
7110;SDS011;3597;42.650;23.386;2023-02-26T04:24:38;3.57;;;1.40;;
7110;SDS011;3597;42.650;23.386;2023-02-26T04:27:03;1.20;;;1.20;;
7110;SDS011;3597;42.650;23.386;2023-02-26T04:29:28;1.20;;;1.10;;
7110;SDS011;3597;42.650;23.386;2023-02-26T04:31:54;1.17;;;1.17;;
7110;SDS011;3597;42.650;23.386;2023-02-26T04:34:19;1.17;;;1.17;;
7110;SDS011;3597;42.650;23.386;2023-02-26T04:36:45;1.27;;;1.27;;
7110;SDS011;3597;42.650;23.386;2023-02-26T04:39:10;1.23;;;1.23;;
7110;SDS011;3597;42.650;23.386;2023-02-26T04:41:36;3.43;;;1.70;;
7110;SDS011;3597;42.650;23.386;2023-02-26T04:44:02;1.20;;;1.20;;
7110;SDS011;3597;42.650;23.386;2023-02-26T04:46:28;7.73;;;1.30;;
7110;SDS011;3597;42.650;23.386;2023-02-26T04:48:54;1.40;;;1.40;;
7110;SDS011;3597;42.650;23.386;2023-02-26T04:51:19;1.63;;;1.57;;
7110;SDS011;3597;42.650;23.386;2023-02-26T04:53:44;1.13;;;1.13;;
7110;SDS011;3597;42.650;23.386;2023-02-26T04:56:10;1.73;;;1.63;;
7110;SDS011;3597;42.650;23.386;2023-02-26T04:58:35;2.93;;;1.60;;
7110;SDS011;3597;42.650;23.386;2023-02-26T05:01:00;1.30;;;1.30;;
7110;SDS011;3597;42.650;23.386;2023-02-26T05:03:26;1.58;;;1.48;;
7110;SDS011;3597;42.650;23.386;2023-02-26T05:05:51;1.57;;;1.40;;
7110;SDS011;3597;42.650;23.386;2023-02-26T05:08:16;1.53;;;1.20;;
7110;SDS011;3597;42.650;23.386;2023-02-26T05:10:42;1.20;;;1.20;;
7110;SDS011;3597;42.650;23.386;2023-02-26T05:13:07;2.83;;;1.30;;
7110;SDS011;3597;42.650;23.386;2023-02-26T05:15:33;1.33;;;1.33;;
7110;SDS011;3597;42.650;23.386;2023-02-26T05:17:58;1.73;;;1.63;;
7110;SDS011;3597;42.650;23.386;2023-02-26T05:20:23;2.20;;;1.40;;
7110;SDS011;3597;42.650;23.386;2023-02-26T05:22:49;1.50;;;1.50;;
7110;SDS011;3597;42.650;23.386;2023-02-26T05:25:14;1.20;;;1.20;;
7110;SDS011;3597;42.650;23.386;2023-02-26T05:27:40;1.60;;;1.53;;
7110;SDS011;3597;42.650;23.386;2023-02-26T05:30:09;1.40;;;1.40;;
7110;SDS011;3597;42.650;23.386;2023-02-26T05:32:36;1.43;;;1.30;;
7110;SDS011;3597;42.650;23.386;2023-02-26T05:35:02;3.13;;;1.43;;
7110;SDS011;3597;42.650;23.386;2023-02-26T05:37:27;1.80;;;1.70;;
7110;SDS011;3597;42.650;23.386;2023-02-26T05:39:53;2.30;;;1.43;;
7110;SDS011;3597;42.650;23.386;2023-02-26T05:42:18;3.50;;;1.90;;
7110;SDS011;3597;42.650;23.386;2023-02-26T05:44:44;1.30;;;1.30;;
7110;SDS011;3597;42.650;23.386;2023-02-26T05:47:09;1.50;;;1.47;;
7110;SDS011;3597;42.650;23.386;2023-02-26T05:49:34;1.70;;;1.60;;
7110;SDS011;3597;42.650;23.386;2023-02-26T05:52:00;2.03;;;1.57;;
7110;SDS011;3597;42.650;23.386;2023-02-26T05:54:25;1.97;;;1.37;;
7110;SDS011;3597;42.650;23.386;2023-02-26T05:56:50;1.57;;;1.53;;
7110;SDS011;3597;42.650;23.386;2023-02-26T05:59:16;1.23;;;1.23;;
7110;SDS011;3597;42.650;23.386;2023-02-26T06:01:41;1.40;;;1.40;;
7110;SDS011;3597;42.650;23.386;2023-02-26T06:04:07;3.33;;;1.83;;
7110;SDS011;3597;42.650;23.386;2023-02-26T06:06:33;1.57;;;1.57;;
7110;SDS011;3597;42.650;23.386;2023-02-26T06:08:58;7.50;;;1.90;;
7110;SDS011;3597;42.650;23.386;2023-02-26T06:11:26;1.60;;;1.53;;
7110;SDS011;3597;42.650;23.386;2023-02-26T06:13:54;1.47;;;1.43;;
7110;SDS011;3597;42.650;23.386;2023-02-26T06:16:20;1.40;;;1.33;;
7110;SDS011;3597;42.650;23.386;2023-02-26T06:18:46;1.73;;;1.50;;
7110;SDS011;3597;42.650;23.386;2023-02-26T06:21:12;3.97;;;1.30;;
7110;SDS011;3597;42.650;23.386;2023-02-26T06:23:38;3.07;;;1.57;;
7110;SDS011;3597;42.650;23.386;2023-02-26T06:26:03;2.17;;;1.80;;
7110;SDS011;3597;42.650;23.386;2023-02-26T06:28:29;1.57;;;1.50;;
7110;SDS011;3597;42.650;23.386;2023-02-26T06:30:55;4.23;;;1.60;;
7110;SDS011;3597;42.650;23.386;2023-02-26T06:33:20;1.33;;;1.33;;
7110;SDS011;3597;42.650;23.386;2023-02-26T06:35:46;1.83;;;1.67;;
7110;SDS011;3597;42.650;23.386;2023-02-26T06:38:12;3.90;;;1.67;;
7110;SDS011;3597;42.650;23.386;2023-02-26T06:40:37;3.47;;;1.37;;
7110;SDS011;3597;42.650;23.386;2023-02-26T06:43:03;1.70;;;1.60;;
7110;SDS011;3597;42.650;23.386;2023-02-26T06:45:28;1.40;;;1.40;;
7110;SDS011;3597;42.650;23.386;2023-02-26T06:47:53;1.70;;;1.60;;
7110;SDS011;3597;42.650;23.386;2023-02-26T06:50:19;4.07;;;1.77;;
7110;SDS011;3597;42.650;23.386;2023-02-26T06:52:44;2.70;;;1.80;;
7110;SDS011;3597;42.650;23.386;2023-02-26T06:55:10;3.33;;;1.60;;
7110;SDS011;3597;42.650;23.386;2023-02-26T06:57:35;1.50;;;1.43;;
7110;SDS011;3597;42.650;23.386;2023-02-26T07:00:01;1.93;;;1.77;;
7110;SDS011;3597;42.650;23.386;2023-02-26T07:02:26;2.47;;;1.93;;
7110;SDS011;3597;42.650;23.386;2023-02-26T07:04:52;1.97;;;1.73;;
7110;SDS011;3597;42.650;23.386;2023-02-26T07:07:17;1.70;;;1.60;;
7110;SDS011;3597;42.650;23.386;2023-02-26T07:09:43;2.27;;;1.50;;
7110;SDS011;3597;42.650;23.386;2023-02-26T07:12:08;1.40;;;1.40;;
7110;SDS011;3597;42.650;23.386;2023-02-26T07:14:34;1.97;;;1.87;;
7110;SDS011;3597;42.650;23.386;2023-02-26T07:17:00;4.03;;;2.03;;
7110;SDS011;3597;42.650;23.386;2023-02-26T07:19:25;1.50;;;1.50;;
7110;SDS011;3597;42.650;23.386;2023-02-26T07:21:51;1.50;;;1.50;;
7110;SDS011;3597;42.650;23.386;2023-02-26T07:24:16;1.90;;;1.50;;
7110;SDS011;3597;42.650;23.386;2023-02-26T07:26:42;8.83;;;2.47;;
7110;SDS011;3597;42.650;23.386;2023-02-26T07:29:07;4.40;;;1.83;;
7110;SDS011;3597;42.650;23.386;2023-02-26T07:31:33;1.60;;;1.53;;
7110;SDS011;3597;42.650;23.386;2023-02-26T07:33:58;1.67;;;1.67;;
7110;SDS011;3597;42.650;23.386;2023-02-26T07:36:23;4.77;;;1.80;;
7110;SDS011;3597;42.650;23.386;2023-02-26T07:38:49;2.40;;;2.20;;
7110;SDS011;3597;42.650;23.386;2023-02-26T07:41:14;2.07;;;1.60;;
7110;SDS011;3597;42.650;23.386;2023-02-26T07:43:40;1.50;;;1.50;;
7110;SDS011;3597;42.650;23.386;2023-02-26T07:46:06;1.97;;;1.80;;
7110;SDS011;3597;42.650;23.386;2023-02-26T07:48:32;2.10;;;1.50;;
7110;SDS011;3597;42.650;23.386;2023-02-26T07:50:57;3.13;;;1.70;;
7110;SDS011;3597;42.650;23.386;2023-02-26T07:53:22;2.33;;;2.13;;
7110;SDS011;3597;42.650;23.386;2023-02-26T07:55:48;1.67;;;1.53;;
7110;SDS011;3597;42.650;23.386;2023-02-26T07:58:13;2.00;;;1.90;;
7110;SDS011;3597;42.650;23.386;2023-02-26T08:00:39;2.57;;;1.70;;
7110;SDS011;3597;42.650;23.386;2023-02-26T08:03:04;1.33;;;1.23;;
7110;SDS011;3597;42.650;23.386;2023-02-26T08:05:29;1.80;;;1.70;;
7110;SDS011;3597;42.650;23.386;2023-02-26T08:07:55;2.77;;;1.60;;
7110;SDS011;3597;42.650;23.386;2023-02-26T08:10:20;2.33;;;1.87;;
7110;SDS011;3597;42.650;23.386;2023-02-26T08:12:45;1.50;;;1.40;;
7110;SDS011;3597;42.650;23.386;2023-02-26T08:15:11;16.27;;;3.50;;
7110;SDS011;3597;42.650;23.386;2023-02-26T08:17:38;3.07;;;2.07;;
7110;SDS011;3597;42.650;23.386;2023-02-26T08:20:04;4.70;;;1.67;;
7110;SDS011;3597;42.650;23.386;2023-02-26T08:22:30;1.40;;;1.40;;
7110;SDS011;3597;42.650;23.386;2023-02-26T08:24:56;1.60;;;1.60;;
7110;SDS011;3597;42.650;23.386;2023-02-26T08:27:21;3.07;;;1.73;;
7110;SDS011;3597;42.650;23.386;2023-02-26T08:29:47;1.90;;;1.80;;
7110;SDS011;3597;42.650;23.386;2023-02-26T08:32:14;6.77;;;2.20;;
7110;SDS011;3597;42.650;23.386;2023-02-26T08:34:41;2.47;;;1.67;;
7110;SDS011;3597;42.650;23.386;2023-02-26T08:37:07;3.07;;;1.50;;
7110;SDS011;3597;42.650;23.386;2023-02-26T08:39:35;9.80;;;1.60;;
7110;SDS011;3597;42.650;23.386;2023-02-26T08:42:02;3.00;;;1.93;;
7110;SDS011;3597;42.650;23.386;2023-02-26T08:44:31;1.63;;;1.53;;
7110;SDS011;3597;42.650;23.386;2023-02-26T08:46:57;3.23;;;1.60;;
7110;SDS011;3597;42.650;23.386;2023-02-26T08:49:23;2.43;;;1.50;;
7110;SDS011;3597;42.650;23.386;2023-02-26T08:51:48;1.67;;;1.30;;
7110;SDS011;3597;42.650;23.386;2023-02-26T08:54:14;3.53;;;1.63;;
7110;SDS011;3597;42.650;23.386;2023-02-26T08:56:39;5.87;;;1.70;;
7110;SDS011;3597;42.650;23.386;2023-02-26T08:59:05;1.77;;;1.67;;
7110;SDS011;3597;42.650;23.386;2023-02-26T09:01:30;1.80;;;1.70;;
7110;SDS011;3597;42.650;23.386;2023-02-26T09:03:56;5.37;;;2.37;;
7110;SDS011;3597;42.650;23.386;2023-02-26T09:06:21;1.60;;;1.60;;
7110;SDS011;3597;42.650;23.386;2023-02-26T09:08:46;4.23;;;1.90;;
7110;SDS011;3597;42.650;23.386;2023-02-26T09:11:13;4.30;;;1.90;;
7110;SDS011;3597;42.650;23.386;2023-02-26T09:13:39;1.77;;;1.67;;
7110;SDS011;3597;42.650;23.386;2023-02-26T09:16:04;1.80;;;1.80;;
7110;SDS011;3597;42.650;23.386;2023-02-26T09:18:30;2.30;;;1.83;;
7110;SDS011;3597;42.650;23.386;2023-02-26T09:20:55;2.60;;;1.80;;
7110;SDS011;3597;42.650;23.386;2023-02-26T09:23:21;3.50;;;1.80;;
7110;SDS011;3597;42.650;23.386;2023-02-26T09:25:50;7.57;;;1.93;;
7110;SDS011;3597;42.650;23.386;2023-02-26T09:28:17;2.13;;;1.70;;
7110;SDS011;3597;42.650;23.386;2023-02-26T09:30:43;4.47;;;2.20;;
7110;SDS011;3597;42.650;23.386;2023-02-26T09:33:08;2.20;;;2.00;;
7110;SDS011;3597;42.650;23.386;2023-02-26T09:35:33;2.47;;;2.23;;
7110;SDS011;3597;42.650;23.386;2023-02-26T09:37:59;4.87;;;1.80;;
7110;SDS011;3597;42.650;23.386;2023-02-26T09:40:28;7.83;;;2.23;;
7110;SDS011;3597;42.650;23.386;2023-02-26T09:45:57;1.87;;;1.70;;
7110;SDS011;3597;42.650;23.386;2023-02-26T09:51:41;2.20;;;2.00;;
7110;SDS011;3597;42.650;23.386;2023-02-26T09:54:13;3.03;;;2.17;;
7110;SDS011;3597;42.650;23.386;2023-02-26T09:56:41;4.20;;;2.00;;
7110;SDS011;3597;42.650;23.386;2023-02-26T09:59:08;1.83;;;1.70;;
7110;SDS011;3597;42.650;23.386;2023-02-26T10:01:36;4.27;;;2.23;;
7110;SDS011;3597;42.650;23.386;2023-02-26T10:07:16;2.40;;;1.87;;
7110;SDS011;3597;42.650;23.386;2023-02-26T10:10:08;2.20;;;2.00;;
7110;SDS011;3597;42.650;23.386;2023-02-26T10:12:40;3.53;;;2.00;;
7110;SDS011;3597;42.650;23.386;2023-02-26T10:25:43;4.23;;;1.93;;
7110;SDS011;3597;42.650;23.386;2023-02-26T10:36:25;2.07;;;1.97;;
7110;SDS011;3597;42.650;23.386;2023-02-26T10:38:57;2.10;;;1.97;;
7110;SDS011;3597;42.650;23.386;2023-02-26T10:41:29;4.37;;;2.40;;
7110;SDS011;3597;42.650;23.386;2023-02-26T10:46:36;4.23;;;2.00;;
7110;SDS011;3597;42.650;23.386;2023-02-26T10:49:23;1.70;;;1.70;;
7110;SDS011;3597;42.650;23.386;2023-02-26T10:51:50;1.83;;;1.73;;
7110;SDS011;3597;42.650;23.386;2023-02-26T10:54:22;1.80;;;1.80;;
7110;SDS011;3597;42.650;23.386;2023-02-26T10:56:52;3.50;;;2.20;;
7110;SDS011;3597;42.650;23.386;2023-02-26T10:59:17;2.20;;;2.10;;
7110;SDS011;3597;42.650;23.386;2023-02-26T11:01:42;2.33;;;2.00;;
7110;SDS011;3597;42.650;23.386;2023-02-26T11:04:10;2.93;;;2.00;;
7110;SDS011;3597;42.650;23.386;2023-02-26T11:06:43;2.03;;;1.93;;
7110;SDS011;3597;42.650;23.386;2023-02-26T11:09:17;3.37;;;2.20;;
7110;SDS011;3597;42.650;23.386;2023-02-26T11:11:55;2.20;;;2.10;;
7110;SDS011;3597;42.650;23.386;2023-02-26T11:14:25;2.17;;;2.07;;
7110;SDS011;3597;42.650;23.386;2023-02-26T11:16:52;3.47;;;1.90;;
7110;SDS011;3597;42.650;23.386;2023-02-26T11:19:24;2.40;;;2.20;;
7110;SDS011;3597;42.650;23.386;2023-02-26T11:21:52;2.53;;;1.93;;
7110;SDS011;3597;42.650;23.386;2023-02-26T11:24:30;2.53;;;1.83;;
7110;SDS011;3597;42.650;23.386;2023-02-26T11:27:03;2.13;;;1.93;;
7110;SDS011;3597;42.650;23.386;2023-02-26T11:29:37;3.37;;;2.03;;
7110;SDS011;3597;42.650;23.386;2023-02-26T11:32:04;2.63;;;2.43;;
7110;SDS011;3597;42.650;23.386;2023-02-26T11:34:30;2.60;;;2.30;;
7110;SDS011;3597;42.650;23.386;2023-02-26T11:36:56;2.53;;;2.33;;
7110;SDS011;3597;42.650;23.386;2023-02-26T11:39:32;3.63;;;2.20;;
7110;SDS011;3597;42.650;23.386;2023-02-26T11:41:58;2.40;;;2.30;;
7110;SDS011;3597;42.650;23.386;2023-02-26T11:44:42;1.70;;;1.70;;
7110;SDS011;3597;42.650;23.386;2023-02-26T11:47:13;2.07;;;1.90;;
7110;SDS011;3597;42.650;23.386;2023-02-26T11:49:50;1.70;;;1.70;;
7110;SDS011;3597;42.650;23.386;2023-02-26T11:54:46;1.77;;;1.73;;
7110;SDS011;3597;42.650;23.386;2023-02-26T11:57:17;3.13;;;2.10;;
7110;SDS011;3597;42.650;23.386;2023-02-26T11:59:49;3.80;;;1.73;;
7110;SDS011;3597;42.650;23.386;2023-02-26T12:02:18;6.83;;;2.63;;
7110;SDS011;3597;42.650;23.386;2023-02-26T12:04:45;3.77;;;1.73;;
7110;SDS011;3597;42.650;23.386;2023-02-26T12:07:13;2.23;;;2.13;;
7110;SDS011;3597;42.650;23.386;2023-02-26T12:09:40;2.33;;;2.20;;
7110;SDS011;3597;42.650;23.386;2023-02-26T12:14:59;4.87;;;2.13;;
7110;SDS011;3597;42.650;23.386;2023-02-26T12:23:35;2.90;;;1.87;;
7110;SDS011;3597;42.650;23.386;2023-02-26T12:31:41;3.87;;;2.00;;
7110;SDS011;3597;42.650;23.386;2023-02-26T12:34:30;2.87;;;2.10;;
7110;SDS011;3597;42.650;23.386;2023-02-26T12:45:28;3.63;;;2.17;;
7110;SDS011;3597;42.650;23.386;2023-02-26T12:48:19;5.70;;;2.57;;
7110;SDS011;3597;42.650;23.386;2023-02-26T12:50:50;2.10;;;2.00;;
7110;SDS011;3597;42.650;23.386;2023-02-26T13:07:35;2.10;;;1.90;;
7110;SDS011;3597;42.650;23.386;2023-02-26T13:21:15;4.70;;;2.73;;
7110;SDS011;3597;42.650;23.386;2023-02-26T13:23:51;3.83;;;2.00;;
7110;SDS011;3597;42.650;23.386;2023-02-26T13:26:18;2.40;;;2.20;;
7110;SDS011;3597;42.650;23.386;2023-02-26T13:28:53;2.33;;;2.20;;
7110;SDS011;3597;42.650;23.386;2023-02-26T13:31:24;2.47;;;2.33;;
7110;SDS011;3597;42.650;23.386;2023-02-26T13:33:52;1.97;;;1.87;;
7110;SDS011;3597;42.650;23.386;2023-02-26T13:36:20;2.23;;;2.13;;
7110;SDS011;3597;42.650;23.386;2023-02-26T13:41:26;3.20;;;2.50;;
7110;SDS011;3597;42.650;23.386;2023-02-26T13:44:02;2.57;;;2.37;;
7110;SDS011;3597;42.650;23.386;2023-02-26T13:52:26;10.33;;;3.17;;
7110;SDS011;3597;42.650;23.386;2023-02-26T13:54:52;2.57;;;2.47;;
7110;SDS011;3597;42.650;23.386;2023-02-26T13:57:32;8.73;;;2.60;;
7110;SDS011;3597;42.650;23.386;2023-02-26T14:02:55;2.00;;;2.00;;
7110;SDS011;3597;42.650;23.386;2023-02-26T14:05:29;2.67;;;2.47;;
7110;SDS011;3597;42.650;23.386;2023-02-26T14:10:28;2.40;;;2.30;;
7110;SDS011;3597;42.650;23.386;2023-02-26T14:13:02;7.77;;;2.70;;
7110;SDS011;3597;42.650;23.386;2023-02-26T14:16:08;2.77;;;2.57;;
7110;SDS011;3597;42.650;23.386;2023-02-26T14:24:04;5.27;;;2.33;;
7110;SDS011;3597;42.650;23.386;2023-02-26T14:26:37;3.47;;;2.20;;
7110;SDS011;3597;42.650;23.386;2023-02-26T14:31:34;3.47;;;2.80;;
7110;SDS011;3597;42.650;23.386;2023-02-26T14:34:26;3.80;;;2.27;;
7110;SDS011;3597;42.650;23.386;2023-02-26T14:36:55;2.77;;;2.57;;
7110;SDS011;3597;42.650;23.386;2023-02-26T14:39:23;4.87;;;2.30;;
7110;SDS011;3597;42.650;23.386;2023-02-26T14:41:54;10.30;;;2.53;;
7110;SDS011;3597;42.650;23.386;2023-02-26T14:44:24;11.27;;;2.47;;
7110;SDS011;3597;42.650;23.386;2023-02-26T14:46:52;2.63;;;2.43;;
7110;SDS011;3597;42.650;23.386;2023-02-26T14:49:24;2.87;;;2.47;;
7110;SDS011;3597;42.650;23.386;2023-02-26T14:58:10;5.27;;;2.73;;
7110;SDS011;3597;42.650;23.386;2023-02-26T15:00:46;3.23;;;2.93;;
7110;SDS011;3597;42.650;23.386;2023-02-26T15:12:21;7.43;;;2.33;;
7110;SDS011;3597;42.650;23.386;2023-02-26T15:17:19;5.40;;;2.40;;
7110;SDS011;3597;42.650;23.386;2023-02-26T15:25:29;2.90;;;1.90;;
7110;SDS011;3597;42.650;23.386;2023-02-26T15:27:58;3.63;;;2.67;;
7110;SDS011;3597;42.650;23.386;2023-02-26T15:30:24;2.67;;;2.50;;
7110;SDS011;3597;42.650;23.386;2023-02-26T15:32:54;4.37;;;2.70;;
7110;SDS011;3597;42.650;23.386;2023-02-26T15:35:21;8.00;;;2.57;;
7110;SDS011;3597;42.650;23.386;2023-02-26T15:37:54;4.70;;;2.37;;
7110;SDS011;3597;42.650;23.386;2023-02-26T15:40:22;3.80;;;1.80;;
7110;SDS011;3597;42.650;23.386;2023-02-26T15:42:49;2.30;;;2.20;;
7110;SDS011;3597;42.650;23.386;2023-02-26T15:47:50;2.70;;;2.50;;
7110;SDS011;3597;42.650;23.386;2023-02-26T15:50:18;2.13;;;2.03;;
7110;SDS011;3597;42.650;23.386;2023-02-26T15:52:45;7.07;;;2.53;;
7110;SDS011;3597;42.650;23.386;2023-02-26T15:55:15;2.17;;;1.93;;
7110;SDS011;3597;42.650;23.386;2023-02-26T15:57:41;4.37;;;2.30;;
7110;SDS011;3597;42.650;23.386;2023-02-26T16:00:08;7.40;;;2.13;;
7110;SDS011;3597;42.650;23.386;2023-02-26T16:02:40;4.97;;;2.37;;
7110;SDS011;3597;42.650;23.386;2023-02-26T16:05:06;14.37;;;2.83;;
7110;SDS011;3597;42.650;23.386;2023-02-26T16:07:32;6.17;;;2.30;;
7110;SDS011;3597;42.650;23.386;2023-02-26T16:10:06;6.73;;;2.47;;
7110;SDS011;3597;42.650;23.386;2023-02-26T16:12:39;6.97;;;3.03;;
7110;SDS011;3597;42.650;23.386;2023-02-26T16:15:10;3.43;;;2.57;;
7110;SDS011;3597;42.650;23.386;2023-02-26T16:17:38;2.47;;;2.30;;
7110;SDS011;3597;42.650;23.386;2023-02-26T16:20:17;2.10;;;2.00;;
7110;SDS011;3597;42.650;23.386;2023-02-26T16:22:47;5.27;;;2.50;;
7110;SDS011;3597;42.650;23.386;2023-02-26T16:25:19;2.63;;;2.37;;
7110;SDS011;3597;42.650;23.386;2023-02-26T16:27:56;5.63;;;2.73;;
7110;SDS011;3597;42.650;23.386;2023-02-26T16:30:26;3.53;;;2.30;;
7110;SDS011;3597;42.650;23.386;2023-02-26T16:32:55;8.03;;;2.37;;
7110;SDS011;3597;42.650;23.386;2023-02-26T16:35:22;2.07;;;1.90;;
7110;SDS011;3597;42.650;23.386;2023-02-26T16:37:49;6.23;;;2.13;;
7110;SDS011;3597;42.650;23.386;2023-02-26T16:40:22;4.27;;;2.37;;
7110;SDS011;3597;42.650;23.386;2023-02-26T16:47:58;5.07;;;2.33;;
7110;SDS011;3597;42.650;23.386;2023-02-26T16:50:24;3.00;;;2.20;;
7110;SDS011;3597;42.650;23.386;2023-02-26T16:52:59;3.53;;;2.43;;
7110;SDS011;3597;42.650;23.386;2023-02-26T16:55:26;2.90;;;2.60;;
7110;SDS011;3597;42.650;23.386;2023-02-26T16:57:54;7.93;;;2.23;;
7110;SDS011;3597;42.650;23.386;2023-02-26T17:00:21;3.37;;;3.17;;
7110;SDS011;3597;42.650;23.386;2023-02-26T17:02:55;3.57;;;2.67;;
7110;SDS011;3597;42.650;23.386;2023-02-26T17:05:23;3.00;;;2.33;;
7110;SDS011;3597;42.650;23.386;2023-02-26T17:07:53;3.77;;;2.63;;
7110;SDS011;3597;42.650;23.386;2023-02-26T17:10:32;2.63;;;2.43;;
7110;SDS011;3597;42.650;23.386;2023-02-26T17:13:05;3.47;;;2.63;;
7110;SDS011;3597;42.650;23.386;2023-02-26T17:15:37;10.50;;;2.63;;
7110;SDS011;3597;42.650;23.386;2023-02-26T17:18:03;3.03;;;2.23;;
7110;SDS011;3597;42.650;23.386;2023-02-26T17:20:29;5.50;;;3.30;;
7110;SDS011;3597;42.650;23.386;2023-02-26T17:22:55;5.27;;;3.20;;
7110;SDS011;3597;42.650;23.386;2023-02-26T17:25:21;3.13;;;2.40;;
7110;SDS011;3597;42.650;23.386;2023-02-26T17:27:49;3.27;;;2.77;;
7110;SDS011;3597;42.650;23.386;2023-02-26T17:30:15;3.87;;;2.90;;
7110;SDS011;3597;42.650;23.386;2023-02-26T17:32:44;2.80;;;2.60;;
7110;SDS011;3597;42.650;23.386;2023-02-26T17:35:13;3.97;;;2.53;;
7110;SDS011;3597;42.650;23.386;2023-02-26T17:37:40;2.67;;;2.47;;
7110;SDS011;3597;42.650;23.386;2023-02-26T17:40:13;2.50;;;2.30;;
7110;SDS011;3597;42.650;23.386;2023-02-26T17:42:42;2.50;;;2.40;;
7110;SDS011;3597;42.650;23.386;2023-02-26T17:45:07;3.00;;;2.30;;
7110;SDS011;3597;42.650;23.386;2023-02-26T17:47:33;8.93;;;3.00;;
7110;SDS011;3597;42.650;23.386;2023-02-26T17:49:58;2.70;;;2.50;;
7110;SDS011;3597;42.650;23.386;2023-02-26T17:52:24;7.43;;;2.63;;
7110;SDS011;3597;42.650;23.386;2023-02-26T17:54:50;3.20;;;2.43;;
7110;SDS011;3597;42.650;23.386;2023-02-26T17:57:16;4.70;;;2.50;;
7110;SDS011;3597;42.650;23.386;2023-02-26T17:59:43;2.33;;;2.00;;
7110;SDS011;3597;42.650;23.386;2023-02-26T18:02:16;4.03;;;2.30;;
7110;SDS011;3597;42.650;23.386;2023-02-26T18:04:42;2.97;;;2.57;;
7110;SDS011;3597;42.650;23.386;2023-02-26T18:07:08;2.03;;;1.83;;